Time;durP1;ratioP1;P1;durP2;ratioP2;P2;SDS_P1;SDS_P2;PMS_P1;PMS_P2;Temp;Humidity;BMP_temperature;BMP_pressure;BME280_temperature;BME280_humidity;BME280_pressure;Samples;Min_cycle;Max_cycle;Signal;HPM_P1;HPM_P2
2022/10/05 00:01:51;;;;;;;;;;;16.20;99.90;;;;;;8383766;28;19921;-78
2022/10/05 00:05:53;;;;;;;;;;;16.20;99.90;;;;;;8380739;28;19927;-78
2022/10/05 00:09:56;;;;;;;;;;;16.20;99.90;;;;;;8407364;28;20338;-79
2022/10/05 00:13:58;;;;;;;;;;;16.20;99.90;;;;;;8392564;28;19924;-78
2022/10/05 00:18:01;;;;;;;;;;;16.20;99.90;;;;;;8405728;28;19927;-79
2022/10/05 00:22:08;;;;;;;;;;;16.20;99.90;;;;;;8430279;28;19920;-78
2022/10/05 00:26:12;;;;;;;;;;;16.20;99.90;;;;;;8413289;28;20018;-77
2022/10/05 00:30:19;;;;;;;;;;;16.20;99.90;;;;;;8392278;28;20279;-78
2022/10/05 00:34:20;;;;;;;;;;;16.20;99.90;;;;;;8398048;28;19928;-78
2022/10/05 00:38:22;;;;;;;;;;;16.20;99.90;;;;;;8404160;28;19958;-78
2022/10/05 00:42:31;;;;;;;;;;;16.20;99.90;;;;;;8404317;28;19926;-78
2022/10/05 00:46:41;;;;;;;;;;;16.20;99.90;;;;;;8422105;27;20338;-78
2022/10/05 00:50:43;;;;;;;;;;;16.20;99.90;;;;;;8411390;28;20015;-78
2022/10/05 00:54:49;;;;;;;;;;;16.20;99.90;;;;;;8401309;28;20422;-77
2022/10/05 00:58:53;;;;;;;;;;;16.20;99.90;;;;;;8416251;28;20379;-77
2022/10/05 01:02:55;;;;;;;;;;;16.10;99.90;;;;;;8401081;28;20642;-77
2022/10/05 01:07:13;;;;;;;;;;;16.10;99.90;;;;;;8417830;28;19930;-78
2022/10/05 01:11:36;;;;;;;;;;;16.10;99.90;;;;;;8403419;28;19937;-78
2022/10/05 01:15:50;;;;;;;;;;;16.10;99.90;;;;;;8407065;28;19926;-78
2022/10/05 01:20:05;;;;;;;;;;;16.10;99.90;;;;;;8421128;27;19928;-78
2022/10/05 01:24:19;;;;;;;;;;;16.10;99.90;;;;;;8405689;28;19948;-79
2022/10/05 01:28:39;;;;;;;;;;;16.10;99.90;;;;;;8425172;28;19926;-78
2022/10/05 01:33:00;;;;;;;;;;;16.00;99.90;;;;;;8417685;28;20047;-78
2022/10/05 01:37:07;;;;;;;;;;;16.00;99.90;;;;;;8407763;28;19923;-77
2022/10/05 01:41:21;;;;;;;;;;;16.00;99.90;;;;;;8420082;28;19958;-77
2022/10/05 01:45:48;;;;;;;;;;;16.00;99.90;;;;;;8407345;28;20381;-79
2022/10/05 01:50:01;;;;;;;;;;;16.00;99.90;;;;;;8417808;28;20202;-78
2022/10/05 01:54:21;;;;;;;;;;;15.90;99.90;;;;;;8395003;28;19927;-78
2022/10/05 01:58:22;;;;;;;;;;;15.90;99.90;;;;;;8417554;27;20290;-77
2022/10/05 02:02:24;;;;;;;;;;;15.90;99.90;;;;;;8421395;28;19932;-78
2022/10/05 02:06:29;;;;;;;;;;;15.90;99.90;;;;;;8406164;28;19927;-77
2022/10/05 02:10:49;;;;;;;;;;;15.80;99.90;;;;;;8398591;28;20067;-78
2022/10/05 02:14:53;;;;;;;;;;;15.80;99.90;;;;;;8412580;28;20173;-77
2022/10/05 02:18:59;;;;;;;;;;;15.80;99.90;;;;;;8409990;28;19923;-78
2022/10/05 02:23:03;;;;;;;;;;;15.80;99.90;;;;;;8416162;28;20015;-78
2022/10/05 02:27:07;;;;;;;;;;;15.80;99.90;;;;;;8427296;28;19927;-79
2022/10/05 02:31:22;;;;;;;;;;;15.70;99.90;;;;;;8401552;28;20007;-78
2022/10/05 02:35:24;;;;;;;;;;;15.70;99.90;;;;;;8419873;28;19935;-77
2022/10/05 02:39:33;;;;;;;;;;;15.70;99.90;;;;;;8407698;28;21030;-77
2022/10/05 02:43:52;;;;;;;;;;;15.70;99.90;;;;;;8423658;28;20058;-78
2022/10/05 02:48:04;;;;;;;;;;;15.80;99.90;;;;;;8417086;28;20030;-78
2022/10/05 02:52:05;;;;;;;;;;;15.70;99.90;;;;;;8407705;28;19942;-79
2022/10/05 02:56:07;;;;;;;;;;;15.70;99.90;;;;;;8420017;28;19942;-79
2022/10/05 03:00:11;;;;;;;;;;;15.70;99.90;;;;;;8403823;28;19926;-78
2022/10/05 03:04:22;;;;;;;;;;;15.80;99.90;;;;;;8392733;28;19938;-79
2022/10/05 03:08:40;;;;;;;;;;;15.70;99.90;;;;;;8406211;27;19932;-78
2022/10/05 03:13:04;;;;;;;;;;;15.70;99.90;;;;;;8392667;28;19927;-78
2022/10/05 03:17:11;;;;;;;;;;;15.70;99.90;;;;;;8413379;28;20354;-78
2022/10/05 03:21:21;;;;;;;;;;;15.70;99.90;;;;;;8439815;28;20312;-79
2022/10/05 03:25:23;;;;;;;;;;;15.70;99.90;;;;;;8432117;28;19966;-77
2022/10/05 03:29:31;;;;;;;;;;;15.70;99.90;;;;;;8445088;28;20342;-78
2022/10/05 03:33:38;;;;;;;;;;;15.70;99.90;;;;;;8404889;28;19928;-78
2022/10/05 03:37:47;;;;;;;;;;;15.70;99.90;;;;;;8425386;28;19959;-78
2022/10/05 03:41:48;;;;;;;;;;;15.70;99.90;;;;;;8421654;28;19921;-78
2022/10/05 03:46:01;;;;;;;;;;;15.70;99.90;;;;;;8400351;28;20006;-78
2022/10/05 03:50:12;;;;;;;;;;;15.70;99.90;;;;;;8414743;28;19920;-78
2022/10/05 03:54:35;;;;;;;;;;;15.70;99.90;;;;;;8428965;28;19926;-77
2022/10/05 03:58:43;;;;;;;;;;;15.70;99.90;;;;;;8432353;28;19920;-76
2022/10/05 04:02:48;;;;;;;;;;;15.70;99.90;;;;;;8429872;28;19962;-79
2022/10/05 04:06:51;;;;;;;;;;;15.70;99.90;;;;;;8429550;28;20425;-77
2022/10/05 04:10:56;;;;;;;;;;;15.70;99.90;;;;;;8441280;28;19923;-77
2022/10/05 04:15:01;;;;;;;;;;;15.70;99.90;;;;;;8429798;28;19928;-78
2022/10/05 04:19:07;;;;;;;;;;;15.70;99.90;;;;;;8416864;28;19926;-77
2022/10/05 04:23:08;;;;;;;;;;;15.70;99.90;;;;;;8424408;28;19934;-77
2022/10/05 04:27:18;;;;;;;;;;;15.70;99.90;;;;;;8419769;28;20014;-78
2022/10/05 04:31:29;;;;;;;;;;;15.70;99.90;;;;;;8422349;28;19920;-78
2022/10/05 04:35:43;;;;;;;;;;;15.60;99.90;;;;;;8409913;28;20019;-78
2022/10/05 04:39:52;;;;;;;;;;;15.60;99.90;;;;;;8411568;28;20381;-77
2022/10/05 04:44:12;;;;;;;;;;;15.60;99.90;;;;;;8412121;28;19924;-78
2022/10/05 04:48:33;;;;;;;;;;;15.60;99.90;;;;;;8418714;28;20364;-77
2022/10/05 04:52:56;;;;;;;;;;;15.60;99.90;;;;;;8418952;28;19959;-78
2022/10/05 04:57:00;;;;;;;;;;;15.60;99.90;;;;;;8417501;28;19934;-78
2022/10/05 05:01:20;;;;;;;;;;;15.60;99.90;;;;;;8419094;28;19924;-77
2022/10/05 05:05:25;;;;;;;;;;;15.60;99.90;;;;;;8400858;28;19931;-78
2022/10/05 05:09:51;;;;;;;;;;;15.60;99.90;;;;;;8424170;28;19950;-78
2022/10/05 05:13:52;;;;;;;;;;;15.60;99.90;;;;;;8423475;28;19920;-78
2022/10/05 05:18:13;;;;;;;;;;;15.60;99.90;;;;;;8436699;28;19924;-77
2022/10/05 05:22:33;;;;;;;;;;;15.60;99.90;;;;;;8466492;27;19920;-78
2022/10/05 05:26:51;;;;;;;;;;;15.60;99.90;;;;;;8422069;28;19920;-77
2022/10/05 05:31:05;;;;;;;;;;;15.60;99.90;;;;;;8434153;27;19998;-78
2022/10/05 05:35:25;;;;;;;;;;;15.60;99.90;;;;;;8432354;28;19932;-77
2022/10/05 05:39:28;;;;;;;;;;;15.60;99.90;;;;;;8413282;28;19923;-78
2022/10/05 05:43:43;;;;;;;;;;;15.60;99.90;;;;;;8413524;28;20267;-78
2022/10/05 05:47:52;;;;;;;;;;;15.60;99.90;;;;;;8432554;28;19919;-78
2022/10/05 05:52:00;;;;;;;;;;;15.50;99.90;;;;;;8420797;28;19928;-78
2022/10/05 05:56:12;;;;;;;;;;;15.50;99.90;;;;;;8428947;28;19919;-77
2022/10/05 06:00:13;;;;;;;;;;;15.50;99.90;;;;;;8430491;28;19971;-77
2022/10/05 06:04:21;;;;;;;;;;;15.50;99.90;;;;;;8420878;28;20112;-76
2022/10/05 06:08:23;;;;;;;;;;;15.50;99.90;;;;;;8410368;28;20018;-77
2022/10/05 06:12:33;;;;;;;;;;;15.50;99.90;;;;;;8411039;28;19920;-78
2022/10/05 06:16:41;;;;;;;;;;;15.50;99.90;;;;;;8418312;28;19927;-78
2022/10/05 06:20:54;;;;;;;;;;;15.50;99.90;;;;;;8426819;28;20011;-77
2022/10/05 06:25:08;;;;;;;;;;;15.50;99.90;;;;;;8419423;28;20022;-78
2022/10/05 06:29:17;;;;;;;;;;;15.50;99.90;;;;;;8407880;28;19928;-77
2022/10/05 06:33:19;;;;;;;;;;;15.50;99.90;;;;;;8412357;28;20275;-78
2022/10/05 06:37:23;;;;;;;;;;;15.50;99.90;;;;;;8431812;28;19966;-77
2022/10/05 06:41:25;;;;;;;;;;;15.50;99.90;;;;;;8425830;28;19945;-77
2022/10/05 06:45:26;;;;;;;;;;;15.50;99.90;;;;;;8435663;28;20371;-77
2022/10/05 06:49:31;;;;;;;;;;;15.50;99.90;;;;;;8432072;28;19920;-77
2022/10/05 06:53:36;;;;;;;;;;;15.50;99.90;;;;;;8410848;28;19926;-78
2022/10/05 06:57:42;;;;;;;;;;;15.50;99.90;;;;;;8436796;28;20416;-78
2022/10/05 07:01:58;;;;;;;;;;;15.50;99.90;;;;;;8455565;28;20359;-78
2022/10/05 07:06:24;;;;;;;;;;;15.60;99.90;;;;;;8454420;28;20281;-77
2022/10/05 07:10:34;;;;;;;;;;;15.60;99.90;;;;;;8445167;28;19934;-77
2022/10/05 07:14:55;;;;;;;;;;;15.60;99.90;;;;;;8447364;28;19924;-77
2022/10/05 07:18:56;;;;;;;;;;;15.60;99.90;;;;;;8413205;28;19966;-77
2022/10/05 07:23:07;;;;;;;;;;;15.60;99.90;;;;;;8446538;28;19957;-77
2022/10/05 07:27:15;;;;;;;;;;;15.60;99.90;;;;;;8448687;28;19968;-78
2022/10/05 07:31:24;;;;;;;;;;;15.60;99.90;;;;;;8450123;28;19934;-77
2022/10/05 07:39:55;;;;;;;;;;;15.60;99.90;;;;;;8432748;28;19927;-78
2022/10/05 07:44:04;;;;;;;;;;;15.60;99.90;;;;;;8426792;28;20415;-78
2022/10/05 07:48:12;;;;;;;;;;;15.70;99.90;;;;;;8415946;28;20382;-77
2022/10/05 07:52:37;;;;;;;;;;;15.70;99.90;;;;;;8419893;28;20587;-77
2022/10/05 07:56:43;;;;;;;;;;;15.70;99.90;;;;;;8425685;28;19923;-78
2022/10/05 08:00:48;;;;;;;;;;;15.60;99.90;;;;;;8426703;28;19920;-77
2022/10/05 08:04:59;;;;;;;;;;;15.60;99.90;;;;;;8436147;28;20282;-78
2022/10/05 08:09:10;;;;;;;;;;;15.60;99.90;;;;;;8413691;28;19926;-78
2022/10/05 08:13:35;;;;;;;;;;;15.60;99.90;;;;;;8399529;28;19919;-77
2022/10/05 08:17:42;;;;;;;;;;;15.60;99.90;;;;;;8432839;28;19930;-77
2022/10/05 08:21:46;;;;;;;;;;;15.60;99.90;;;;;;8412542;28;20326;-78
2022/10/05 08:25:56;;;;;;;;;;;15.60;99.90;;;;;;8396424;28;19923;-78
2022/10/05 08:30:03;;;;;;;;;;;15.70;99.90;;;;;;8421519;28;19932;-77
2022/10/05 08:44:31;;;;;;;;;;;15.70;99.90;;;;;;8418377;28;19915;-78
2022/10/05 08:54:02;;;;;;;;;;;15.70;99.90;;;;;;8435535;28;19947;-78
2022/10/05 08:58:13;;;;;;;;;;;15.70;99.90;;;;;;8436307;28;20410;-78
2022/10/05 09:02:19;;;;;;;;;;;15.80;99.90;;;;;;8421422;28;19928;-78
2022/10/05 09:06:24;;;;;;;;;;;15.80;99.90;;;;;;8427849;28;20308;-78
2022/10/05 09:10:25;;;;;;;;;;;15.80;99.90;;;;;;8437551;28;19924;-78
2022/10/05 09:14:32;;;;;;;;;;;15.90;99.90;;;;;;8439166;28;19932;-78
2022/10/05 09:18:46;;;;;;;;;;;15.90;99.90;;;;;;8413817;28;20025;-78
2022/10/05 09:22:56;;;;;;;;;;;16.00;99.90;;;;;;8430353;28;19930;-78
2022/10/05 09:27:07;;;;;;;;;;;16.00;99.90;;;;;;8430180;28;19920;-77
2022/10/05 09:31:28;;;;;;;;;;;16.10;99.90;;;;;;8441138;28;19961;-78
2022/10/05 09:35:42;;;;;;;;;;;16.10;99.90;;;;;;8420661;28;19927;-78
2022/10/05 09:40:07;;;;;;;;;;;16.20;99.90;;;;;;8432698;27;20382;-78
2022/10/05 09:44:11;;;;;;;;;;;16.20;99.90;;;;;;8427487;28;19926;-77
2022/10/05 09:48:33;;;;;;;;;;;16.30;99.90;;;;;;8435400;28;19978;-78
2022/10/05 09:52:44;;;;;;;;;;;16.30;99.90;;;;;;8420519;28;19920;-78
2022/10/05 09:56:51;;;;;;;;;;;16.30;99.90;;;;;;8422640;28;19920;-78
2022/10/05 10:01:05;;;;;;;;;;;16.40;99.90;;;;;;8436841;28;19919;-78
2022/10/05 10:05:36;;;;;;;;;;;16.40;99.90;;;;;;8432579;28;19942;-77
2022/10/05 10:09:47;;;;;;;;;;;16.50;99.90;;;;;;8431485;28;20035;-77
2022/10/05 10:13:58;;;;;;;;;;;16.50;99.90;;;;;;8434426;28;20282;-78
2022/10/05 10:18:03;;;;;;;;;;;16.60;99.90;;;;;;8415274;28;19928;-78
2022/10/05 10:22:14;;;;;;;;;;;16.60;99.90;;;;;;8387953;28;19930;-78
2022/10/05 10:26:35;;;;;;;;;;;16.60;99.90;;;;;;8403984;28;20572;-78
2022/10/05 10:30:44;;;;;;;;;;;16.70;99.90;;;;;;8404943;28;19930;-78
2022/10/05 10:34:51;;;;;;;;;;;16.70;99.90;;;;;;8401089;28;19985;-78
2022/10/05 10:38:58;;;;;;;;;;;16.70;99.90;;;;;;8402122;28;20006;-78
2022/10/05 10:43:21;;;;;;;;;;;16.70;99.90;;;;;;8400179;28;19923;-79
2022/10/05 10:47:25;;;;;;;;;;;16.70;99.90;;;;;;8404335;28;19920;-79
2022/10/05 10:51:51;;;;;;;;;;;16.80;99.90;;;;;;8390487;28;19930;-78
2022/10/05 10:55:59;;;;;;;;;;;16.80;99.90;;;;;;8395456;28;19963;-79
2022/10/05 11:00:07;;;;;;;;;;;16.80;99.90;;;;;;8372648;28;19928;-78
2022/10/05 11:04:23;;;;;;;;;;;16.80;99.90;;;;;;8398957;28;20019;-78
2022/10/05 11:08:39;;;;;;;;;;;16.80;99.90;;;;;;8383934;28;19934;-78
2022/10/05 11:12:59;;;;;;;;;;;16.90;99.90;;;;;;8389133;28;19928;-78
2022/10/05 11:17:30;;;;;;;;;;;16.90;99.90;;;;;;8388171;28;19965;-79
2022/10/05 11:21:42;;;;;;;;;;;16.90;99.90;;;;;;8365412;28;20365;-79
2022/10/05 11:25:53;;;;;;;;;;;17.00;99.90;;;;;;8391293;28;19947;-78
2022/10/05 11:30:11;;;;;;;;;;;17.10;99.90;;;;;;8405715;27;19928;-78
2022/10/05 11:34:31;;;;;;;;;;;17.10;99.90;;;;;;8405859;27;19920;-78
2022/10/05 11:38:52;;;;;;;;;;;17.20;99.90;;;;;;8394644;28;20078;-78
2022/10/05 11:43:03;;;;;;;;;;;17.20;99.90;;;;;;8393014;28;19920;-79
2022/10/05 11:47:22;;;;;;;;;;;17.30;99.90;;;;;;8398772;28;20368;-78
2022/10/05 11:51:39;;;;;;;;;;;17.30;99.90;;;;;;8401075;28;19930;-79
2022/10/05 11:55:42;;;;;;;;;;;17.40;99.90;;;;;;8390576;28;19924;-78
2022/10/05 11:59:50;;;;;;;;;;;17.50;99.90;;;;;;8395646;28;20453;-77
2022/10/05 12:03:57;;;;;;;;;;;17.50;99.90;;;;;;8401266;28;19935;-79
2022/10/05 12:08:07;;;;;;;;;;;17.60;99.90;;;;;;8397951;28;19924;-79
2022/10/05 12:12:08;;;;;;;;;;;17.60;99.90;;;;;;8404933;28;19950;-78
2022/10/05 12:16:17;;;;;;;;;;;17.70;99.90;;;;;;8399344;28;19924;-78
2022/10/05 12:20:29;;;;;;;;;;;17.70;99.90;;;;;;8405395;28;20338;-79
2022/10/05 12:24:36;;;;;;;;;;;17.80;99.90;;;;;;8409278;28;20015;-78
2022/10/05 12:28:42;;;;;;;;;;;17.90;99.90;;;;;;8402026;28;19920;-78
2022/10/05 12:32:53;;;;;;;;;;;18.00;99.90;;;;;;8403002;28;19920;-78
2022/10/05 12:37:21;;;;;;;;;;;18.00;99.90;;;;;;8401634;28;19928;-78
2022/10/05 12:41:52;;;;;;;;;;;18.10;99.90;;;;;;8364766;28;19938;-79
2022/10/05 12:46:13;;;;;;;;;;;18.10;99.90;;;;;;8368479;28;19924;-78
2022/10/05 12:50:19;;;;;;;;;;;18.20;99.90;;;;;;8405790;28;19951;-79
2022/10/05 12:54:22;;;;;;;;;;;18.20;99.90;;;;;;8384235;28;19960;-78
2022/10/05 12:58:28;;;;;;;;;;;18.20;99.90;;;;;;8399563;28;19920;-78
2022/10/05 13:02:37;;;;;;;;;;;18.20;99.90;;;;;;8399103;28;20176;-78
2022/10/05 13:06:58;;;;;;;;;;;18.10;99.90;;;;;;8383242;28;19947;-78
2022/10/05 13:11:19;;;;;;;;;;;18.00;99.90;;;;;;8413714;28;20387;-79
2022/10/05 13:15:26;;;;;;;;;;;18.10;99.90;;;;;;8396906;28;19928;-77
2022/10/05 13:19:27;;;;;;;;;;;18.00;99.90;;;;;;8399349;28;20022;-79
2022/10/05 13:23:33;;;;;;;;;;;18.00;99.90;;;;;;8383663;28;19919;-78
2022/10/05 13:27:39;;;;;;;;;;;18.00;99.90;;;;;;8397167;28;20283;-78
2022/10/05 13:31:53;;;;;;;;;;;18.00;99.90;;;;;;8397224;28;20015;-78
2022/10/05 13:36:09;;;;;;;;;;;18.00;99.90;;;;;;8414795;27;19943;-79
2022/10/05 13:40:31;;;;;;;;;;;18.10;99.90;;;;;;8395218;28;19941;-78
2022/10/05 13:44:33;;;;;;;;;;;18.20;99.90;;;;;;8392966;28;19926;-78
2022/10/05 13:48:53;;;;;;;;;;;18.30;99.90;;;;;;8398287;28;19920;-79
2022/10/05 13:53:15;;;;;;;;;;;18.30;99.90;;;;;;8409957;27;19920;-79
2022/10/05 13:57:16;;;;;;;;;;;18.40;99.90;;;;;;8402862;28;19921;-79
2022/10/05 14:01:22;;;;;;;;;;;18.50;99.90;;;;;;8398566;28;19924;-78
2022/10/05 14:05:25;;;;;;;;;;;18.70;99.90;;;;;;8381296;28;19959;-78
2022/10/05 14:09:29;;;;;;;;;;;18.70;99.90;;;;;;8394098;28;19920;-78
2022/10/05 14:13:33;;;;;;;;;;;18.70;99.90;;;;;;8378636;28;20360;-79
2022/10/05 14:17:39;;;;;;;;;;;18.60;99.90;;;;;;8394934;28;20342;-78
2022/10/05 14:21:48;;;;;;;;;;;18.60;99.90;;;;;;8396232;28;19930;-79
2022/10/05 14:25:52;;;;;;;;;;;18.60;99.90;;;;;;8393706;28;19924;-77
2022/10/05 14:30:00;;;;;;;;;;;18.60;99.90;;;;;;8390961;28;19930;-78
2022/10/05 14:34:21;;;;;;;;;;;18.50;99.90;;;;;;8410426;27;20370;-78
2022/10/05 14:38:47;;;;;;;;;;;18.40;99.90;;;;;;8385958;28;19928;-77
2022/10/05 14:42:49;;;;;;;;;;;18.40;99.90;;;;;;8402446;28;19940;-79
2022/10/05 14:46:53;;;;;;;;;;;18.30;99.90;;;;;;8382116;28;25090;-78
2022/10/05 14:51:02;;;;;;;;;;;18.20;99.90;;;;;;8397475;28;20577;-79
2022/10/05 14:55:09;;;;;;;;;;;18.10;99.90;;;;;;8390743;27;19953;-78
2022/10/05 14:59:21;;;;;;;;;;;18.10;99.90;;;;;;8379704;28;20013;-79
2022/10/05 15:03:28;;;;;;;;;;;18.00;99.90;;;;;;8398391;28;20397;-77
2022/10/05 15:07:34;;;;;;;;;;;18.00;99.90;;;;;;8368701;28;20029;-78
2022/10/05 15:12:09;;;;;;;;;;;18.10;99.90;;;;;;8407124;28;19920;-79
2022/10/05 15:16:20;;;;;;;;;;;18.10;99.90;;;;;;8372682;28;19924;-78
2022/10/05 15:20:24;;;;;;;;;;;18.00;99.90;;;;;;8396849;28;19924;-78
2022/10/05 15:24:30;;;;;;;;;;;18.00;99.90;;;;;;8395970;28;19935;-77
2022/10/05 15:28:41;;;;;;;;;;;18.00;99.90;;;;;;8395351;28;19932;-77
2022/10/05 15:32:43;;;;;;;;;;;17.90;99.90;;;;;;8394193;28;19919;-78
2022/10/05 15:36:56;;;;;;;;;;;17.90;99.90;;;;;;8393777;28;21184;-78
2022/10/05 15:41:05;;;;;;;;;;;17.90;99.90;;;;;;8395169;28;19924;-78
2022/10/05 15:45:28;;;;;;;;;;;17.80;99.90;;;;;;8404534;28;20600;-78
2022/10/05 15:49:52;;;;;;;;;;;17.80;99.90;;;;;;8402244;28;20471;-78
2022/10/05 15:54:39;;;;;;;;;;;17.80;99.90;;;;;;8374042;28;19924;-79
2022/10/05 15:58:38;;;;;;;;;;;17.80;99.90;;;;;;8391110;28;19924;-78
2022/10/05 16:02:59;;;;;;;;;;;17.80;99.90;;;;;;8385949;28;20604;-79
2022/10/05 16:11:21;;;;;;;;;;;17.70;99.90;;;;;;8401283;28;20035;-76
2022/10/05 16:15:32;;;;;;;;;;;17.70;99.90;;;;;;8394511;28;19928;-79
2022/10/05 16:19:33;;;;;;;;;;;17.60;99.90;;;;;;8412798;28;20992;-78
2022/10/05 16:23:54;;;;;;;;;;;17.60;99.90;;;;;;8403138;28;20369;-77
2022/10/05 16:28:14;;;;;;;;;;;17.60;99.90;;;;;;8441597;28;19924;-77
2022/10/05 16:32:16;;;;;;;;;;;17.60;99.90;;;;;;8444164;28;20577;-78
2022/10/05 16:36:21;;;;;;;;;;;17.60;99.90;;;;;;8458745;27;20010;-78
2022/10/05 16:40:35;;;;;;;;;;;17.50;99.90;;;;;;8440623;27;20015;-78
2022/10/05 16:44:45;;;;;;;;;;;17.50;99.90;;;;;;8438836;27;19924;-77
2022/10/05 16:48:55;;;;;;;;;;;17.50;99.90;;;;;;8447052;27;19931;-78
2022/10/05 16:53:00;;;;;;;;;;;17.40;99.90;;;;;;8426151;27;19926;-78
2022/10/05 16:57:04;;;;;;;;;;;17.50;99.90;;;;;;8441049;27;19971;-78
2022/10/05 17:11:32;;;;;;;;;;;17.40;99.90;;;;;;8436175;27;20379;-79
2022/10/05 17:15:47;;;;;;;;;;;17.40;99.90;;;;;;8430868;27;20816;-77
2022/10/05 17:19:54;;;;;;;;;;;17.40;99.90;;;;;;8437163;27;19959;-77
2022/10/05 17:24:14;;;;;;;;;;;17.40;99.90;;;;;;8446227;27;20317;-77
2022/10/05 17:28:35;;;;;;;;;;;17.40;99.90;;;;;;8434980;27;19937;-77
2022/10/05 17:32:38;;;;;;;;;;;17.40;99.90;;;;;;8447847;27;19924;-77
2022/10/05 17:36:46;;;;;;;;;;;17.30;99.90;;;;;;8435679;27;19924;-78
2022/10/05 17:41:01;;;;;;;;;;;17.40;99.90;;;;;;8433801;28;19926;-77
2022/10/05 17:45:10;;;;;;;;;;;17.40;99.90;;;;;;8451723;27;19955;-78
2022/10/05 17:49:15;;;;;;;;;;;17.40;99.90;;;;;;8428842;27;19924;-80
2022/10/05 17:57:41;;;;;;;;;;;17.40;99.90;;;;;;8432845;27;19919;-78
2022/10/05 18:02:03;;;;;;;;;;;17.40;99.90;;;;;;8435980;27;19924;-77
2022/10/05 18:06:23;;;;;;;;;;;17.40;99.90;;;;;;8436141;27;22265;-78
2022/10/05 18:10:28;;;;;;;;;;;17.40;99.90;;;;;;8432539;27;19931;-78
2022/10/05 18:14:50;;;;;;;;;;;17.40;99.90;;;;;;8441406;27;19938;-78
2022/10/05 18:18:53;;;;;;;;;;;17.40;99.90;;;;;;8429025;27;20286;-77
2022/10/05 18:23:15;;;;;;;;;;;17.40;99.90;;;;;;8422343;27;19997;-78
2022/10/05 18:27:25;;;;;;;;;;;17.40;99.90;;;;;;8416023;27;20412;-78
2022/10/05 18:31:34;;;;;;;;;;;17.40;99.90;;;;;;8443582;27;19931;-77
2022/10/05 18:35:40;;;;;;;;;;;17.40;99.90;;;;;;8451324;27;19928;-77
2022/10/05 18:39:50;;;;;;;;;;;17.40;99.90;;;;;;8435068;27;19920;-77
2022/10/05 18:43:52;;;;;;;;;;;17.40;99.90;;;;;;8418748;27;19934;-78
2022/10/05 18:48:00;;;;;;;;;;;17.50;99.90;;;;;;8434605;27;19972;-77
2022/10/05 18:52:17;;;;;;;;;;;17.50;99.90;;;;;;8426656;27;19928;-77
2022/10/05 18:56:19;;;;;;;;;;;17.50;99.90;;;;;;8443521;27;20405;-78
2022/10/05 19:00:24;;;;;;;;;;;17.60;99.90;;;;;;8437569;27;19931;-78
2022/10/05 19:04:25;;;;;;;;;;;17.60;99.90;;;;;;8404655;27;20381;-77
2022/10/05 19:13:30;;;;;;;;;;;17.60;99.90;;;;;;8413277;27;19914;-79
2022/10/05 19:17:51;;;;;;;;;;;17.70;99.90;;;;;;8417314;27;20298;-78
2022/10/05 19:22:01;;;;;;;;;;;17.80;99.90;;;;;;8408767;27;20077;-78
2022/10/05 19:26:10;;;;;;;;;;;17.70;99.90;;;;;;8416233;27;19934;-78
2022/10/05 19:30:15;;;;;;;;;;;17.60;99.90;;;;;;8419419;28;20204;-78
2022/10/05 19:34:20;;;;;;;;;;;17.50;99.90;;;;;;8420268;28;24009;-79
2022/10/05 19:38:31;;;;;;;;;;;17.50;99.90;;;;;;8418805;28;20022;-78
2022/10/05 19:42:44;;;;;;;;;;;17.50;99.90;;;;;;8418968;27;20014;-77
2022/10/05 19:46:52;;;;;;;;;;;17.60;99.90;;;;;;8417831;28;19920;-77
2022/10/05 19:50:57;;;;;;;;;;;17.60;99.90;;;;;;8422833;28;19924;-78
2022/10/05 19:55:01;;;;;;;;;;;17.60;99.90;;;;;;8412274;28;19930;-78
2022/10/05 19:59:16;;;;;;;;;;;17.40;99.90;;;;;;8404962;28;19924;-80
2022/10/05 20:03:22;;;;;;;;;;;16.40;99.90;;;;;;8415223;28;19928;-79
2022/10/05 20:07:23;;;;;;;;;;;15.70;99.90;;;;;;8422524;28;19919;-79
2022/10/05 20:11:26;;;;;;;;;;;15.30;99.90;;;;;;8424214;28;19924;-79
2022/10/05 20:24:14;;;;;;;;;;;14.80;99.90;;;;;;8423935;28;19926;-80
2022/10/05 20:28:28;;;;;;;;;;;14.70;99.90;;;;;;8409772;28;19923;-79
2022/10/05 20:32:30;;;;;;;;;;;14.70;99.90;;;;;;8420724;28;20014;-79
2022/10/05 20:36:32;;;;;;;;;;;14.80;99.90;;;;;;8418599;28;19924;-80
2022/10/05 20:40:34;;;;;;;;;;;14.70;99.90;;;;;;8420844;28;19924;-79
2022/10/05 20:44:36;;;;;;;;;;;14.80;99.90;;;;;;8422276;28;19920;-80
2022/10/05 20:48:38;;;;;;;;;;;14.80;99.90;;;;;;8424140;27;20023;-79
2022/10/05 20:52:40;;;;;;;;;;;14.80;99.90;;;;;;8423932;27;19931;-79
2022/10/05 20:56:41;;;;;;;;;;;14.90;99.90;;;;;;8412805;27;19924;-79
2022/10/05 21:05:04;;;;;;;;;;;14.90;99.90;;;;;;8456080;27;20293;-79
2022/10/05 21:09:10;;;;;;;;;;;14.90;99.90;;;;;;8453985;27;19935;-79
2022/10/05 21:23:59;;;;;;;;;;;14.90;99.90;;;;;;8437965;27;20018;-79
2022/10/05 21:28:01;;;;;;;;;;;14.90;99.90;;;;;;8449698;27;20598;-79
2022/10/05 21:32:07;;;;;;;;;;;14.80;99.90;;;;;;8436766;27;20407;-79
2022/10/05 21:36:09;;;;;;;;;;;14.80;99.90;;;;;;8432942;27;20302;-79
2022/10/05 21:40:10;;;;;;;;;;;14.80;99.90;;;;;;8431548;27;19934;-78
2022/10/05 21:44:12;;;;;;;;;;;14.80;99.90;;;;;;8437706;27;19920;-79
2022/10/05 21:48:15;;;;;;;;;;;14.80;99.90;;;;;;8445861;27;19997;-78
2022/10/05 21:52:16;;;;;;;;;;;14.80;99.90;;;;;;8454437;27;20026;-79
2022/10/05 21:56:19;;;;;;;;;;;14.80;99.90;;;;;;8464172;27;19930;-79
2022/10/05 22:00:21;;;;;;;;;;;14.70;99.90;;;;;;8449791;27;19934;-78
2022/10/05 22:04:23;;;;;;;;;;;14.70;99.90;;;;;;8433398;27;20383;-78
2022/10/05 22:08:28;;;;;;;;;;;14.60;99.90;;;;;;8444360;27;19934;-79
2022/10/05 22:12:31;;;;;;;;;;;14.60;99.90;;;;;;8447107;27;19920;-78
2022/10/05 22:16:35;;;;;;;;;;;14.60;99.90;;;;;;8429715;27;19927;-79
2022/10/05 22:20:37;;;;;;;;;;;14.50;99.90;;;;;;8438594;27;19955;-78
2022/10/05 22:24:38;;;;;;;;;;;14.50;99.90;;;;;;8415879;27;19968;-78
2022/10/05 22:28:41;;;;;;;;;;;14.40;99.90;;;;;;8434480;27;19946;-78
2022/10/05 22:32:43;;;;;;;;;;;14.40;99.90;;;;;;8445352;27;19969;-78
2022/10/05 22:36:46;;;;;;;;;;;14.40;99.90;;;;;;8445566;27;20294;-78
2022/10/05 22:40:48;;;;;;;;;;;14.30;99.90;;;;;;8447377;27;19924;-79
2022/10/05 22:44:49;;;;;;;;;;;14.30;99.90;;;;;;8452241;27;19926;-78
2022/10/05 22:48:51;;;;;;;;;;;14.30;99.90;;;;;;8432445;27;19930;-78
2022/10/05 22:52:52;;;;;;;;;;;14.30;99.90;;;;;;8426026;27;19930;-78
2022/10/05 22:56:54;;;;;;;;;;;14.30;99.90;;;;;;8431572;27;20395;-79
2022/10/05 23:00:58;;;;;;;;;;;14.30;99.90;;;;;;8458323;27;19930;-79
2022/10/05 23:05:00;;;;;;;;;;;14.30;99.90;;;;;;8431900;27;19923;-78
2022/10/05 23:09:02;;;;;;;;;;;14.30;99.90;;;;;;8423283;27;20456;-79
2022/10/05 23:13:04;;;;;;;;;;;14.30;99.90;;;;;;8431856;27;19924;-78
2022/10/05 23:17:06;;;;;;;;;;;14.20;99.90;;;;;;8441302;27;19986;-78
2022/10/05 23:21:09;;;;;;;;;;;14.20;99.90;;;;;;8434478;27;19934;-79
2022/10/05 23:25:10;;;;;;;;;;;14.30;99.90;;;;;;8421589;27;20321;-78
2022/10/05 23:29:12;;;;;;;;;;;14.30;99.90;;;;;;8436714;27;19953;-79
2022/10/05 23:33:14;;;;;;;;;;;14.20;99.90;;;;;;8447877;27;19931;-79
2022/10/05 23:37:17;;;;;;;;;;;14.20;99.90;;;;;;8447717;27;19927;-78
2022/10/05 23:41:19;;;;;;;;;;;14.20;99.90;;;;;;8455556;27;19972;-78
2022/10/05 23:45:21;;;;;;;;;;;14.20;99.90;;;;;;8443940;27;19937;-78
2022/10/05 23:49:23;;;;;;;;;;;14.10;99.90;;;;;;8449691;27;20223;-78
2022/10/05 23:53:24;;;;;;;;;;;14.00;99.90;;;;;;8439869;27;20327;-79
2022/10/05 23:57:26;;;;;;;;;;;13.90;99.90;;;;;;8453364;27;20981;-79
